Time;durP1;ratioP1;P1;durP2;ratioP2;P2;SDS_P1;SDS_P2;PMS_P1;PMS_P2;Temp;Humidity;BMP_temperature;BMP_pressure;BME280_temperature;BME280_humidity;BME280_pressure;Samples;Min_cycle;Max_cycle;Signal;HPM_P1;HPM_P2
2020/12/04 00:00:58;;;;;;;2.47;1.75;;;;;;;4.70;95.17;98137.91;5095589;28;20032;-70
2020/12/04 00:03:23;;;;;;;3.28;2.50;;;;;;;4.75;95.31;98133.22;5092420;28;20471;-69
2020/12/04 00:05:48;;;;;;;6.10;2.40;;;;;;;4.72;95.24;98123.81;5098997;28;20039;-69
2020/12/04 00:08:14;;;;;;;4.47;2.40;;;;;;;4.75;94.82;98123.59;5090341;28;20028;-69
2020/12/04 00:10:39;;;;;;;3.35;2.20;;;;;;;4.73;95.26;98114.19;5097098;28;20026;-70
2020/12/04 00:13:04;;;;;;;4.10;2.25;;;;;;;4.72;94.99;98118.56;5097485;28;20428;-69
2020/12/04 00:15:31;;;;;;;4.00;1.80;;;;;;;4.77;94.93;98119.13;5092655;28;20047;-69
2020/12/04 00:17:56;;;;;;;2.85;2.25;;;;;;;4.76;94.92;98113.97;5096075;28;20512;-69
2020/12/04 00:20:21;;;;;;;3.15;2.03;;;;;;;4.76;94.70;98104.34;5099384;28;20019;-69
2020/12/04 00:22:47;;;;;;;9.50;2.50;;;;;;;4.78;94.42;98099.88;5096890;28;20400;-70
2020/12/04 00:25:12;;;;;;;7.90;1.67;;;;;;;4.80;94.01;98092.75;5094648;28;20032;-69
2020/12/04 00:27:37;;;;;;;4.63;1.70;;;;;;;4.78;94.70;98085.94;5097225;28;20038;-69
2020/12/04 00:30:03;;;;;;;2.50;1.95;;;;;;;4.80;94.28;98079.66;5099114;28;20485;-69
2020/12/04 00:32:28;;;;;;;3.83;1.90;;;;;;;4.80;94.45;98050.88;5094789;28;20028;-70
2020/12/04 00:34:53;;;;;;;3.47;1.92;;;;;;;4.77;94.03;98045.00;5095627;28;20023;-69
2020/12/04 00:37:18;;;;;;;8.68;2.28;;;;;;;4.78;94.19;98050.16;5094348;28;20040;-69
2020/12/04 00:39:44;;;;;;;5.20;1.90;;;;;;;4.78;94.28;98044.91;5095510;28;20019;-69
2020/12/04 00:42:09;;;;;;;2.85;1.92;;;;;;;4.78;94.02;98038.84;5099233;28;20415;-69
2020/12/04 00:44:34;;;;;;;1.85;1.45;;;;;;;4.79;93.92;98041.34;5089019;28;20019;-69
2020/12/04 00:47:01;;;;;;;2.70;1.98;;;;;;;4.80;94.06;98039.56;5093602;28;20599;-69
2020/12/04 00:49:28;;;;;;;4.88;2.00;;;;;;;4.79;93.86;98036.13;5097808;28;20031;-69
2020/12/04 00:51:53;;;;;;;2.13;1.77;;;;;;;4.76;93.54;98030.22;5094495;28;20405;-69
2020/12/04 00:54:19;;;;;;;3.67;1.77;;;;;;;4.79;93.28;98030.88;5096384;28;20020;-69
2020/12/04 00:56:44;;;;;;;3.95;1.75;;;;;;;4.79;93.34;98022.19;5098656;28;20162;-69
2020/12/04 00:59:09;;;;;;;2.42;1.58;;;;;;;4.78;93.67;98017.91;5096603;28;20374;-69
2020/12/04 01:01:35;;;;;;;2.45;1.80;;;;;;;4.83;93.88;98013.22;5089574;28;20032;-69
2020/12/04 01:04:00;;;;;;;4.60;1.73;;;;;;;4.81;93.53;98012.44;5096119;28;20031;-70
2020/12/04 01:06:26;;;;;;;1.88;1.63;;;;;;;4.79;93.75;98004.72;5094216;28;20032;-70
2020/12/04 01:08:51;;;;;;;2.63;1.85;;;;;;;4.84;93.12;98001.78;5097680;28;20030;-69
2020/12/04 01:11:20;;;;;;;1.80;1.17;;;;;;;4.82;93.03;97999.28;5092412;28;20488;-70
2020/12/04 01:13:46;;;;;;;2.45;1.40;;;;;;;4.81;93.33;97978.44;5097003;28;20129;-69
2020/12/04 01:16:11;;;;;;;1.88;1.60;;;;;;;4.81;93.21;97981.06;5093978;28;20127;-69
2020/12/04 01:18:37;;;;;;;2.17;1.50;;;;;;;4.79;93.36;97977.72;5095705;28;20042;-70
2020/12/04 01:21:05;;;;;;;1.65;1.45;;;;;;;4.83;93.38;97971.34;5095253;28;20035;-70
2020/12/04 01:23:30;;;;;;;2.20;1.30;;;;;;;4.81;93.29;97965.34;5095455;28;20084;-70
2020/12/04 01:25:55;;;;;;;4.63;1.65;;;;;;;4.77;93.31;97969.97;5093994;28;20051;-69
2020/12/04 01:28:20;;;;;;;3.35;1.20;;;;;;;4.81;92.79;97965.34;5095015;28;20034;-69
2020/12/04 01:30:46;;;;;;;2.97;1.50;;;;;;;4.80;93.16;97955.81;5094299;28;20506;-69
2020/12/04 01:33:11;;;;;;;1.67;1.30;;;;;;;4.80;93.65;97953.22;5094369;28;20028;-69
2020/12/04 01:35:36;;;;;;;4.00;1.25;;;;;;;4.78;93.49;97953.31;5094357;28;20483;-69
2020/12/04 01:38:01;;;;;;;3.80;1.40;;;;;;;4.77;93.72;97941.19;5090422;28;20085;-69
2020/12/04 01:40:27;;;;;;;1.75;1.10;;;;;;;4.76;93.83;97936.88;5095168;28;20096;-69
2020/12/04 01:42:52;;;;;;;3.28;1.30;;;;;;;4.75;94.00;97940.44;5094903;28;20038;-69
2020/12/04 01:45:17;;;;;;;2.03;1.05;;;;;;;4.75;93.54;97942.22;5099430;28;20027;-69
2020/12/04 01:47:43;;;;;;;2.58;1.50;;;;;;;4.73;94.05;97926.63;5094017;28;20555;-69
2020/12/04 01:50:09;;;;;;;2.25;1.23;;;;;;;4.71;94.48;97936.34;5097810;28;20049;-69
2020/12/04 01:52:34;;;;;;;1.63;1.25;;;;;;;4.75;94.18;97931.75;5094353;28;20032;-69
2020/12/04 01:55:00;;;;;;;2.70;1.30;;;;;;;4.72;94.10;97916.25;5094256;28;20058;-69
2020/12/04 01:57:32;;;;;;;3.10;1.35;;;;;;;4.74;94.24;97907.38;5100084;28;20046;-69
2020/12/04 01:59:57;;;;;;;2.60;1.10;;;;;;;4.72;94.12;97906.66;5098854;28;20036;-70
2020/12/04 02:02:23;;;;;;;3.85;1.65;;;;;;;4.75;94.06;97898.56;5094629;28;20046;-69
2020/12/04 02:04:50;;;;;;;3.05;1.10;;;;;;;4.76;94.66;97902.84;5096567;28;20032;-69
2020/12/04 02:07:40;;;;;;;1.95;1.27;;;;;;;4.81;94.03;97890.28;5100877;28;20032;-69
2020/12/04 02:10:15;;;;;;;4.90;1.45;;;;;;;4.78;93.95;97877.44;5093168;28;20029;-69
2020/12/04 02:12:41;;;;;;;3.55;1.20;;;;;;;4.83;93.54;97874.50;5097935;28;20073;-69
2020/12/04 02:15:08;;;;;;;2.17;1.30;;;;;;;4.81;93.73;97866.75;5093076;28;20635;-69
2020/12/04 02:17:34;;;;;;;3.75;1.15;;;;;;;4.84;93.49;97865.72;5091524;28;20039;-69
2020/12/04 02:20:00;;;;;;;2.35;1.20;;;;;;;4.84;93.16;97860.47;5094132;28;20035;-69
2020/12/04 02:22:33;;;;;;;1.48;0.95;;;;;;;4.87;93.27;97855.88;5094316;28;20111;-69
2020/12/04 02:24:59;;;;;;;2.88;1.40;;;;;;;4.89;93.13;97845.31;5092954;28;20043;-69
2020/12/04 02:27:24;;;;;;;1.40;1.10;;;;;;;4.87;92.87;97848.03;5096474;28;20043;-69
2020/12/04 02:29:49;;;;;;;2.33;1.17;;;;;;;4.89;92.66;97840.91;5096916;28;20035;-69
2020/12/04 02:32:15;;;;;;;1.95;1.05;;;;;;;4.92;92.24;97838.09;5096873;28;20482;-69
2020/12/04 02:34:42;;;;;;;1.85;1.17;;;;;;;4.96;92.07;97830.84;5095142;28;20016;-70
2020/12/04 02:37:08;;;;;;;2.38;1.15;;;;;;;4.96;92.01;97832.63;5096721;28;20028;-69
2020/12/04 02:39:34;;;;;;;1.55;1.15;;;;;;;4.96;91.93;97835.25;5099507;28;20043;-69
2020/12/04 02:42:00;;;;;;;1.58;1.08;;;;;;;4.96;92.17;97837.84;5098243;28;20070;-69
2020/12/04 02:44:25;;;;;;;1.20;0.98;;;;;;;4.93;92.60;97810.97;5095910;28;20035;-69
2020/12/04 02:46:51;;;;;;;2.50;1.10;;;;;;;4.95;92.68;97805.63;5099376;27;20023;-69
2020/12/04 02:49:20;;;;;;;2.05;1.20;;;;;;;4.98;92.34;97801.97;5099100;28;20027;-70
2020/12/04 02:51:47;;;;;;;2.70;1.00;;;;;;;5.00;91.81;97806.13;5096563;28;20024;-70
2020/12/04 02:54:13;;;;;;;1.35;0.90;;;;;;;5.03;91.69;97805.09;5127755;27;20106;-70
2020/12/04 02:56:38;;;;;;;6.10;1.70;;;;;;;5.05;91.29;97792.72;5102421;28;20098;-70
2020/12/04 02:59:04;;;;;;;2.83;1.30;;;;;;;5.04;91.63;97781.41;5092061;28;20081;-70
2020/12/04 03:04:50;;;;;;;3.17;1.17;;;;;;;5.03;91.86;97757.97;5098617;28;20072;-70
2020/12/04 03:07:16;;;;;;;1.17;0.90;;;;;;;5.07;91.53;97773.38;5100646;28;20154;-69
2020/12/04 03:09:41;;;;;;;4.78;0.90;;;;;;;5.08;90.92;97795.97;5100325;28;20396;-70
2020/12/04 03:12:06;;;;;;;1.55;0.82;;;;;;;5.13;90.57;97780.78;5094187;28;20028;-70
2020/12/04 03:14:31;;;;;;;3.53;0.65;;;;;;;5.14;90.82;97790.28;5095029;28;20485;-70
2020/12/04 03:16:57;;;;;;;2.50;0.90;;;;;;;5.14;91.20;97779.81;5096934;28;20015;-70
2020/12/04 03:19:22;;;;;;;6.82;1.10;;;;;;;5.20;90.57;97774.16;5098915;28;20027;-70
2020/12/04 03:21:47;;;;;;;1.50;0.82;;;;;;;5.16;90.86;97772.69;5096323;28;20519;-70
2020/12/04 03:24:13;;;;;;;2.30;0.80;;;;;;;5.25;90.13;97773.00;5097340;28;20024;-69
2020/12/04 03:26:38;;;;;;;0.80;0.68;;;;;;;5.20;90.81;97762.84;5093760;28;20115;-70
2020/12/04 03:29:04;;;;;;;0.47;0.43;;;;;;;5.28;89.94;97755.28;5090723;28;20624;-69
2020/12/04 03:31:29;;;;;;;0.75;0.60;;;;;;;5.31;89.62;97764.69;5093524;28;20437;-69
2020/12/04 03:33:54;;;;;;;2.97;0.77;;;;;;;5.32;89.96;97755.88;5098488;28;20032;-69
2020/12/04 03:36:19;;;;;;;1.48;1.00;;;;;;;5.30;90.90;97752.53;5095228;28;20404;-70
2020/12/04 03:38:45;;;;;;;1.20;0.60;;;;;;;5.36;89.95;97755.56;5099531;28;20077;-70
2020/12/04 03:41:11;;;;;;;1.48;0.80;;;;;;;5.39;90.06;97754.50;5095375;28;20032;-69
2020/12/04 03:43:40;;;;;;;1.65;0.85;;;;;;;5.41;89.65;97758.69;5103191;28;20028;-70
2020/12/04 03:46:07;;;;;;;5.88;0.73;;;;;;;5.42;90.13;97738.56;5093755;28;20462;-70
2020/12/04 03:48:32;;;;;;;0.75;0.70;;;;;;;5.46;89.78;97745.25;5098908;28;20375;-70
2020/12/04 03:50:58;;;;;;;1.95;1.00;;;;;;;5.50;89.95;97746.69;5102415;28;20039;-70
2020/12/04 03:53:23;;;;;;;0.88;0.60;;;;;;;5.55;89.83;97741.13;5098942;28;20027;-70
2020/12/04 03:55:49;;;;;;;0.85;0.60;;;;;;;5.56;89.63;97735.75;5095395;28;20020;-70
2020/12/04 03:58:14;;;;;;;1.20;0.70;;;;;;;5.57;89.63;97744.47;5095638;28;20474;-70
2020/12/04 04:00:39;;;;;;;0.65;0.40;;;;;;;5.59;89.93;97735.56;5098515;28;20051;-70
2020/12/04 04:03:04;;;;;;;0.70;0.68;;;;;;;5.60;89.58;97733.75;5102106;28;20049;-70
2020/12/04 04:05:30;;;;;;;1.17;0.82;;;;;;;5.62;89.65;97731.84;5096922;28;20055;-70
2020/12/04 04:07:55;;;;;;;0.80;0.60;;;;;;;5.64;89.52;97741.28;5100211;28;20496;-70
2020/12/04 04:10:20;;;;;;;1.20;0.70;;;;;;;5.60;89.61;97729.34;5099467;28;20088;-70
2020/12/04 04:12:45;;;;;;;1.58;0.80;;;;;;;5.60;89.84;97724.13;5099885;28;20031;-69
2020/12/04 04:15:11;;;;;;;0.95;0.73;;;;;;;5.60;89.64;97741.63;5092914;28;20387;-69
2020/12/04 04:17:36;;;;;;;2.58;0.75;;;;;;;5.52;90.13;97734.31;5097899;28;20031;-69
2020/12/04 04:20:03;;;;;;;1.45;0.70;;;;;;;5.58;90.28;97733.88;5092297;28;20522;-70
2020/12/04 04:22:28;;;;;;;1.00;0.60;;;;;;;5.67;89.86;97734.97;5102387;28;20026;-69
2020/12/04 04:24:53;;;;;;;0.43;0.40;;;;;;;5.72;89.43;97743.34;5087630;28;20115;-69
2020/12/04 04:27:18;;;;;;;1.10;0.70;;;;;;;5.71;89.53;97741.66;5127505;27;20404;-69
2020/12/04 04:29:44;;;;;;;1.45;0.88;;;;;;;5.71;89.79;97747.75;5095058;28;20020;-70
2020/12/04 04:32:09;;;;;;;0.88;0.73;;;;;;;5.79;89.38;97748.97;5094009;28;20073;-70
2020/12/04 04:34:35;;;;;;;1.40;0.68;;;;;;;5.78;90.05;97755.19;5098329;28;20062;-69
2020/12/04 04:37:00;;;;;;;1.17;0.85;;;;;;;5.83;89.93;97734.72;5094766;28;20024;-70
2020/12/04 04:39:25;;;;;;;0.70;0.60;;;;;;;5.79;89.89;97718.38;5100414;28;20082;-69
2020/12/04 04:41:55;;;;;;;0.80;0.70;;;;;;;5.72;90.37;97714.50;5094039;28;20028;-69
2020/12/04 04:44:22;;;;;;;0.93;0.80;;;;;;;5.72;90.46;97717.13;5096842;28;20085;-69
2020/12/04 04:46:59;;;;;;;0.90;0.65;;;;;;;5.74;90.27;97709.19;5090211;28;20089;-69
2020/12/04 04:49:28;;;;;;;1.88;1.00;;;;;;;5.70;90.83;97717.25;5094564;28;20473;-69
2020/12/04 04:51:55;;;;;;;0.82;0.60;;;;;;;5.77;90.67;97720.25;5087929;28;20032;-69
2020/12/04 04:54:23;;;;;;;1.35;0.80;;;;;;;5.87;91.01;97720.41;5093099;28;20066;-69
2020/12/04 04:56:49;;;;;;;0.93;0.55;;;;;;;5.91;91.37;97714.84;5070001;28;20446;-69
2020/12/04 04:59:17;;;;;;;0.73;0.60;;;;;;;5.91;91.70;97709.59;5098640;28;20027;-69
2020/12/04 05:01:42;;;;;;;1.52;0.90;;;;;;;5.89;91.77;97708.88;5098925;28;20432;-69
2020/12/04 05:04:07;;;;;;;1.20;0.90;;;;;;;5.98;91.34;97715.25;5091318;28;20028;-69
2020/12/04 05:06:36;;;;;;;1.02;0.90;;;;;;;6.01;91.01;97704.50;5097347;28;20034;-69
2020/12/04 05:09:06;;;;;;;1.52;1.00;;;;;;;6.02;91.11;97707.97;5095158;28;20111;-69
2020/12/04 05:11:32;;;;;;;1.05;0.70;;;;;;;6.07;90.64;97705.81;5091060;28;20531;-69
2020/12/04 05:14:11;;;;;;;1.05;0.85;;;;;;;6.11;90.42;97707.25;5092938;28;20032;-69
2020/12/04 05:16:37;;;;;;;1.38;0.98;;;;;;;6.15;90.12;97695.59;5090043;28;20498;-70
2020/12/04 05:19:03;;;;;;;3.45;1.33;;;;;;;6.14;90.27;97686.91;5093597;28;20122;-70
2020/12/04 05:21:31;;;;;;;4.65;0.75;;;;;;;6.17;89.96;97693.69;5094040;28;20023;-70
2020/12/04 05:23:59;;;;;;;0.98;0.70;;;;;;;6.18;90.10;97701.44;5089727;28;20169;-70
2020/12/04 05:26:34;;;;;;;2.55;0.80;;;;;;;6.23;89.59;97694.06;5096780;28;20024;-70
2020/12/04 05:29:00;;;;;;;0.98;0.70;;;;;;;6.31;88.85;97685.59;5097212;28;20084;-70
2020/12/04 05:31:31;;;;;;;0.80;0.57;;;;;;;6.37;88.49;97686.91;5090917;28;20178;-69
2020/12/04 05:33:56;;;;;;;1.95;1.15;;;;;;;6.37;88.77;97692.16;5094851;28;20018;-70
2020/12/04 05:36:30;;;;;;;1.13;0.50;;;;;;;6.39;88.72;97691.09;5097660;28;20031;-70
2020/12/04 05:38:57;;;;;;;0.63;0.40;;;;;;;6.47;88.12;97707.06;5097340;28;20023;-70
2020/12/04 05:41:25;;;;;;;0.57;0.50;;;;;;;6.49;87.94;97697.31;5099447;28;20048;-70
2020/12/04 05:43:53;;;;;;;2.65;0.90;;;;;;;6.48;87.76;97700.88;5096457;28;20035;-70
2020/12/04 05:46:21;;;;;;;0.95;0.60;;;;;;;6.54;87.33;97698.75;5097520;28;20489;-69
2020/12/04 05:49:05;;;;;;;2.90;1.48;;;;;;;6.48;87.98;97706.13;5096923;28;20019;-70
2020/12/04 05:51:32;;;;;;;1.48;0.60;;;;;;;6.58;86.95;97703.63;5093803;28;20618;-70
2020/12/04 05:53:59;;;;;;;3.10;0.80;;;;;;;6.57;87.21;97707.19;5094171;28;20028;-70
2020/12/04 05:56:25;;;;;;;2.10;0.77;;;;;;;6.56;87.24;97704.69;5101062;28;20538;-70
2020/12/04 05:58:55;;;;;;;1.73;0.73;;;;;;;6.60;87.08;97700.88;5101985;28;20028;-70
2020/12/04 06:01:22;;;;;;;1.58;0.50;;;;;;;6.62;86.54;97712.09;5096271;28;20022;-70
2020/12/04 06:03:50;;;;;;;1.02;0.55;;;;;;;6.58;86.90;97714.13;5095123;28;20028;-70
2020/12/04 06:06:32;;;;;;;4.28;0.68;;;;;;;6.62;86.70;97722.56;5101240;28;20085;-70
2020/12/04 06:09:03;;;;;;;0.60;0.50;;;;;;;6.62;86.81;97733.06;5091492;28;20047;-70
2020/12/04 06:11:32;;;;;;;0.40;0.40;;;;;;;6.73;85.93;97733.94;5093848;28;20079;-69
2020/12/04 06:13:59;;;;;;;3.13;0.40;;;;;;;6.77;84.75;97733.66;5092506;28;20039;-69
2020/12/04 06:16:24;;;;;;;1.30;0.65;;;;;;;6.73;85.53;97730.47;5090121;28;20070;-69
2020/12/04 06:18:49;;;;;;;1.02;0.20;;;;;;;6.74;83.23;97716.38;5090579;28;20028;-70
2020/12/04 06:21:15;;;;;;;1.50;0.60;;;;;;;6.78;82.44;97743.22;5095587;28;20042;-70
2020/12/04 06:24:07;;;;;;;1.20;0.32;;;;;;;6.81;80.10;97756.94;5090365;28;20123;-70
2020/12/04 06:26:45;;;;;;;1.30;0.30;;;;;;;6.77;79.23;97759.91;5094893;28;20032;-70
2020/12/04 06:29:10;;;;;;;3.15;0.57;;;;;;;6.74;78.66;97759.22;5092622;28;20099;-70
2020/12/04 06:31:36;;;;;;;4.45;0.80;;;;;;;6.66;78.83;97758.97;5092108;28;20724;-69
2020/12/04 06:34:13;;;;;;;1.17;0.35;;;;;;;6.64;78.95;97767.91;5087125;28;20043;-70
2020/12/04 06:36:39;;;;;;;3.58;0.32;;;;;;;6.57;79.39;97769.31;5094246;28;20028;-70
2020/12/04 06:39:04;;;;;;;3.55;0.40;;;;;;;6.54;78.96;97766.97;5088606;28;20036;-70
2020/12/04 06:41:33;;;;;;;1.73;0.40;;;;;;;6.47;78.98;97774.44;5093607;28;20030;-70
2020/12/04 06:44:06;;;;;;;2.17;0.60;;;;;;;6.36;79.28;97775.25;5089278;28;20520;-70
2020/12/04 06:46:38;;;;;;;1.50;0.47;;;;;;;6.30;79.36;97777.53;5084188;28;20023;-69
2020/12/04 06:52:02;;;;;;;1.60;0.40;;;;;;;6.09;80.93;97791.28;5083252;28;20043;-70
2020/12/04 06:54:29;;;;;;;1.52;0.30;;;;;;;6.05;80.37;97804.75;5095061;28;20046;-71
2020/12/04 06:56:56;;;;;;;0.60;0.45;;;;;;;6.08;80.53;97800.13;5091983;28;20057;-70
2020/12/04 06:59:32;;;;;;;1.17;0.40;;;;;;;6.09;80.44;97803.56;5078555;28;20035;-69
2020/12/04 07:02:00;;;;;;;0.47;0.30;;;;;;;6.08;80.49;97815.84;5091051;28;20047;-69
2020/12/04 07:04:27;;;;;;;2.65;1.10;;;;;;;6.23;79.12;97825.19;5093414;28;20148;-69
2020/12/04 07:07:00;;;;;;;1.02;0.85;;;;;;;6.23;79.57;97830.44;5094633;28;20081;-69
2020/12/04 07:09:26;;;;;;;4.15;0.52;;;;;;;6.22;79.95;97836.66;5096813;28;20024;-70
2020/12/04 07:11:52;;;;;;;3.47;0.40;;;;;;;6.30;79.87;97843.09;5096727;28;20039;-69
2020/12/04 07:14:22;;;;;;;1.98;0.32;;;;;;;6.29;79.79;97854.53;5092386;28;20024;-70
2020/12/04 07:16:48;;;;;;;1.48;0.30;;;;;;;6.32;79.71;97868.25;5088507;28;20034;-69
2020/12/04 07:19:13;;;;;;;1.55;0.93;;;;;;;6.29;80.62;97871.13;5093319;28;20389;-69
2020/12/04 07:21:40;;;;;;;0.85;0.50;;;;;;;6.27;79.64;97854.63;5090059;28;20024;-69
2020/12/04 07:24:06;;;;;;;0.77;0.57;;;;;;;6.27;80.49;97869.53;5100998;28;20043;-69
2020/12/04 07:26:32;;;;;;;0.60;0.28;;;;;;;6.22;80.16;97883.00;5090602;28;20032;-70
2020/12/04 07:28:58;;;;;;;0.80;0.40;;;;;;;6.17;80.36;97896.44;5096866;28;20015;-70
2020/12/04 07:31:23;;;;;;;0.52;0.30;;;;;;;6.24;79.60;97888.97;5090301;28;20571;-70
2020/12/04 07:33:52;;;;;;;0.35;0.22;;;;;;;6.22;79.45;97902.22;5090311;28;20094;-70
2020/12/04 07:36:17;;;;;;;2.13;0.40;;;;;;;6.16;79.56;97905.25;5098167;28;20475;-69
2020/12/04 07:38:52;;;;;;;0.57;0.38;;;;;;;6.21;78.04;97908.38;5092669;28;20042;-69
2020/12/04 07:41:32;;;;;;;0.40;0.40;;;;;;;6.18;78.23;97913.03;5092939;28;20442;-70
2020/12/04 07:44:00;;;;;;;0.80;0.50;;;;;;;6.18;78.68;97920.91;5092479;28;20030;-70
2020/12/04 07:46:26;;;;;;;0.55;0.30;;;;;;;6.07;79.84;97923.44;5092891;28;20043;-70
2020/12/04 07:49:02;;;;;;;0.52;0.35;;;;;;;6.07;78.65;97923.44;5097989;28;20088;-69
2020/12/04 07:51:28;;;;;;;2.25;0.55;;;;;;;6.15;77.36;97927.19;5099275;28;20019;-70
2020/12/04 07:53:56;;;;;;;4.72;0.32;;;;;;;6.13;76.54;97933.50;5095029;28;21163;-70
2020/12/04 07:56:26;;;;;;;0.25;0.25;;;;;;;6.13;76.33;97938.75;5091757;28;20023;-69
2020/12/04 07:59:01;;;;;;;1.48;0.30;;;;;;;6.11;76.00;97969.47;5097724;28;20031;-69
2020/12/04 08:01:27;;;;;;;0.20;0.20;;;;;;;6.05;76.89;97976.00;5097897;28;20423;-69
2020/12/04 08:03:54;;;;;;;1.27;0.40;;;;;;;6.03;77.77;97995.44;5093755;28;20031;-69
2020/12/04 08:06:25;;;;;;;0.60;0.20;;;;;;;6.04;77.70;98004.97;5097560;28;20115;-69
2020/12/04 08:09:06;;;;;;;0.13;0.13;;;;;;;6.13;77.22;98002.53;5098840;28;20031;-69
2020/12/04 08:11:35;;;;;;;0.55;0.35;;;;;;;6.16;78.21;98025.91;5094350;28;20064;-70
2020/12/04 08:14:02;;;;;;;0.60;0.30;;;;;;;6.15;78.55;98036.50;5094353;28;20027;-70
2020/12/04 08:16:28;;;;;;;0.55;0.28;;;;;;;6.15;79.65;98041.75;5101689;27;20035;-70
2020/12/04 08:18:53;;;;;;;0.40;0.30;;;;;;;6.19;79.22;98037.97;5096611;28;20030;-70
2020/12/04 08:21:18;;;;;;;0.73;0.30;;;;;;;6.25;78.16;98041.94;5090034;28;20032;-69
2020/12/04 08:23:54;;;;;;;0.90;0.43;;;;;;;6.28;76.82;98037.31;5095743;28;20023;-69
2020/12/04 08:26:19;;;;;;;0.38;0.38;;;;;;;6.36;76.98;98047.25;5096396;28;20119;-70
2020/12/04 08:28:56;;;;;;;0.57;0.45;;;;;;;6.33;76.73;98056.19;5093301;28;20099;-70
2020/12/04 08:31:23;;;;;;;0.20;0.20;;;;;;;6.40;76.74;98049.53;5098068;28;20035;-70
2020/12/04 08:33:49;;;;;;;0.75;0.40;;;;;;;6.40;76.81;98062.66;5094167;28;20032;-70
2020/12/04 08:36:14;;;;;;;3.03;0.60;;;;;;;6.37;77.81;98060.25;5096858;28;20031;-70
2020/12/04 08:38:49;;;;;;;1.85;0.60;;;;;;;6.36;78.74;98065.59;5099751;28;20638;-70
2020/12/04 08:41:15;;;;;;;2.78;0.50;;;;;;;6.37;77.71;98073.38;5092143;28;20089;-70
2020/12/04 08:43:41;;;;;;;1.40;0.40;;;;;;;6.34;78.33;98081.47;5091338;28;20439;-69
2020/12/04 08:46:10;;;;;;;1.15;0.60;;;;;;;6.39;77.47;98089.84;5092665;28;20028;-69
2020/12/04 08:48:38;;;;;;;1.95;0.50;;;;;;;6.37;77.64;98078.59;5094937;28;20030;-70
2020/12/04 08:51:06;;;;;;;3.85;0.57;;;;;;;6.36;78.09;98083.97;5096046;28;20038;-69
2020/12/04 08:53:32;;;;;;;1.98;1.02;;;;;;;6.36;78.03;98082.19;5086540;28;20082;-70
2020/12/04 08:56:00;;;;;;;2.35;0.70;;;;;;;6.35;78.54;98091.00;5089826;28;20599;-70
2020/12/04 08:58:27;;;;;;;1.38;0.60;;;;;;;6.37;78.44;98096.97;5096015;28;20114;-70
2020/12/04 09:00:55;;;;;;;1.30;0.70;;;;;;;6.37;78.51;98094.34;5090309;28;20039;-70
2020/12/04 09:03:22;;;;;;;3.20;0.60;;;;;;;6.35;79.13;98095.41;5087116;28;20043;-70
2020/12/04 09:05:47;;;;;;;3.45;0.60;;;;;;;6.39;77.95;98096.88;5094439;28;20032;-70
2020/12/04 09:08:13;;;;;;;0.75;0.43;;;;;;;6.40;77.92;98101.19;5091651;28;20028;-70
2020/12/04 09:10:38;;;;;;;1.45;0.45;;;;;;;6.37;78.26;98117.97;5093304;28;20031;-71
2020/12/04 09:13:05;;;;;;;2.58;0.55;;;;;;;6.39;77.69;98128.38;5093771;28;20042;-69
2020/12/04 09:15:31;;;;;;;2.70;0.60;;;;;;;6.35;78.62;98127.72;5089757;28;20048;-70
2020/12/04 09:17:57;;;;;;;1.05;0.70;;;;;;;6.40;77.22;98122.16;5093667;28;20036;-70
2020/12/04 09:20:23;;;;;;;1.55;0.70;;;;;;;6.40;77.57;98130.88;5094659;28;20480;-69
2020/12/04 09:22:48;;;;;;;0.93;0.63;;;;;;;6.40;77.94;98133.50;5092045;28;20047;-69
2020/12/04 09:25:15;;;;;;;1.50;0.88;;;;;;;6.39;77.24;98137.06;5092746;28;20953;-69
2020/12/04 09:27:41;;;;;;;1.13;0.60;;;;;;;6.43;76.18;98141.16;5091383;28;20043;-69
2020/12/04 09:30:09;;;;;;;0.52;0.50;;;;;;;6.42;76.47;98144.72;5090452;28;20043;-69
2020/12/04 09:32:35;;;;;;;1.30;0.57;;;;;;;6.41;76.42;98152.69;5090375;28;20077;-69
2020/12/04 09:35:01;;;;;;;1.02;0.82;;;;;;;6.45;76.36;98151.53;5085644;28;20027;-69
2020/12/04 09:37:29;;;;;;;1.58;0.52;;;;;;;6.44;75.47;98163.00;5091366;28;20035;-69
2020/12/04 09:39:57;;;;;;;1.55;0.50;;;;;;;6.48;74.91;98169.72;5088677;28;20027;-69
2020/12/04 09:42:24;;;;;;;3.05;0.47;;;;;;;6.43;76.38;98175.28;5095512;28;20032;-69
2020/12/04 09:44:51;;;;;;;2.08;0.52;;;;;;;6.51;75.95;98179.13;5089999;28;20067;-70
2020/12/04 09:47:17;;;;;;;1.27;0.57;;;;;;;6.49;75.60;98179.25;5096460;28;20036;-79
2020/12/04 09:49:43;;;;;;;1.60;0.70;;;;;;;6.51;76.59;98179.13;5099790;27;20028;-69
2020/12/04 09:52:09;;;;;;;1.27;0.50;;;;;;;6.51;76.88;98179.97;5092141;28;20107;-70
2020/12/04 09:54:36;;;;;;;1.83;0.88;;;;;;;6.48;77.49;98188.91;5086841;28;20393;-70
2020/12/04 09:57:04;;;;;;;1.50;0.70;;;;;;;6.43;78.58;98191.00;5090697;28;20123;-69
2020/12/04 09:59:29;;;;;;;0.75;0.60;;;;;;;6.41;79.35;98187.63;5082857;28;20034;-70
2020/12/04 10:01:54;;;;;;;1.35;0.75;;;;;;;6.35;79.34;98190.69;5088124;28;20474;-73
2020/12/04 10:04:21;;;;;;;1.63;0.68;;;;;;;6.44;78.48;98204.97;5122003;27;20085;-73
2020/12/04 10:06:47;;;;;;;1.67;0.60;;;;;;;6.47;77.59;98194.25;5089511;28;20065;-72
2020/12/04 10:09:14;;;;;;;1.95;0.80;;;;;;;6.44;78.38;98199.72;5104534;28;20025;-74
2020/12/04 10:11:39;;;;;;;2.15;0.70;;;;;;;6.46;76.52;98221.44;5108348;28;20024;-73
2020/12/04 10:14:05;;;;;;;0.75;0.45;;;;;;;6.52;75.17;98215.75;5093483;28;20038;-74
2020/12/04 10:16:30;;;;;;;3.45;0.50;;;;;;;6.48;74.92;98215.16;5089568;28;20126;-74
2020/12/04 10:18:57;;;;;;;3.75;0.65;;;;;;;6.49;75.16;98244.84;5099237;28;20025;-74
2020/12/04 10:21:23;;;;;;;0.95;0.52;;;;;;;6.52;73.79;98222.78;5090788;28;20035;-73
2020/12/04 10:23:48;;;;;;;1.45;0.85;;;;;;;6.55;72.95;98228.66;5095779;28;20039;-73
2020/12/04 10:26:13;;;;;;;2.15;0.50;;;;;;;6.61;72.63;98230.03;5095946;28;20096;-73
2020/12/04 10:28:39;;;;;;;2.30;0.50;;;;;;;6.60;72.98;98234.44;5091878;28;20024;-73
2020/12/04 10:31:04;;;;;;;4.18;0.60;;;;;;;6.61;72.37;98232.66;5098888;28;20020;-73
2020/12/04 10:33:30;;;;;;;2.08;0.70;;;;;;;6.55;72.63;98254.91;5094370;28;20031;-73
2020/12/04 10:35:55;;;;;;;0.70;0.45;;;;;;;6.55;72.76;98251.44;5097068;28;20489;-73
2020/12/04 10:38:20;;;;;;;1.02;0.60;;;;;;;6.52;73.46;98255.13;5095245;28;20039;-73
2020/12/04 10:40:45;;;;;;;0.85;0.43;;;;;;;6.48;73.80;98246.63;5101356;28;20028;-73
2020/12/04 10:43:11;;;;;;;3.72;0.70;;;;;;;6.46;73.99;98245.03;5095380;28;20024;-74
2020/12/04 10:45:36;;;;;;;0.73;0.38;;;;;;;6.44;74.28;98249.56;5095096;28;20035;-74
2020/12/04 10:48:02;;;;;;;2.95;0.60;;;;;;;6.46;74.99;98258.16;5096475;28;20143;-74
2020/12/04 10:50:27;;;;;;;2.10;0.52;;;;;;;6.44;76.16;98257.44;5094816;28;20024;-73
2020/12/04 10:52:53;;;;;;;1.38;0.70;;;;;;;6.48;75.78;98262.38;5095987;28;20024;-73
2020/12/04 10:55:18;;;;;;;8.18;1.05;;;;;;;6.51;74.72;98265.72;5093089;28;20035;-73
2020/12/04 10:57:43;;;;;;;7.00;1.05;;;;;;;6.49;74.86;98258.81;5077561;28;20036;-72
2020/12/04 11:00:08;;;;;;;1.08;0.90;;;;;;;6.53;74.76;98269.09;5094351;28;20085;-72
2020/12/04 11:02:36;;;;;;;1.80;0.70;;;;;;;6.57;74.18;98254.81;5092664;28;20051;-72
2020/12/04 11:07:42;;;;;;;4.30;0.80;;;;;;;6.59;73.58;98263.44;5092218;28;20504;-73
2020/12/04 11:10:07;;;;;;;1.80;0.50;;;;;;;6.51;73.89;98263.09;5091595;28;20036;-73
2020/12/04 11:12:33;;;;;;;4.07;0.70;;;;;;;6.48;73.91;98256.28;5092059;28;20094;-72
2020/12/04 11:14:58;;;;;;;1.23;0.65;;;;;;;6.42;73.77;98267.19;5071596;28;20043;-72
2020/12/04 11:17:23;;;;;;;0.77;0.60;;;;;;;6.40;73.88;98274.34;5096871;28;20113;-72
2020/12/04 11:19:49;;;;;;;6.18;1.27;;;;;;;6.39;74.26;98276.13;5097462;28;20047;-72
2020/12/04 11:22:14;;;;;;;2.50;0.63;;;;;;;6.40;74.99;98283.03;5091678;28;20077;-72
2020/12/04 11:24:40;;;;;;;0.90;0.68;;;;;;;6.38;75.12;98271.81;5098459;28;20127;-72
2020/12/04 11:27:05;;;;;;;1.05;0.77;;;;;;;6.36;75.62;98280.72;5098354;28;20489;-72
2020/12/04 11:29:31;;;;;;;3.53;0.57;;;;;;;6.35;76.43;98290.38;5098517;28;20031;-72
2020/12/04 11:31:56;;;;;;;1.90;0.85;;;;;;;6.40;76.70;98287.44;5089032;28;20394;-73
2020/12/04 11:34:21;;;;;;;3.25;0.70;;;;;;;6.37;76.51;98285.03;5090345;28;20615;-73
2020/12/04 11:36:46;;;;;;;1.38;0.80;;;;;;;6.60;76.57;98286.09;5091316;28;20032;-72
2020/12/04 11:39:12;;;;;;;4.13;0.98;;;;;;;6.78;76.11;98284.84;5085803;28;20044;-73
2020/12/04 11:41:37;;;;;;;2.08;0.93;;;;;;;6.81;75.02;98279.34;5093359;28;20071;-73
2020/12/04 11:44:03;;;;;;;4.35;0.70;;;;;;;6.70;73.27;98277.47;5094766;28;20058;-73
2020/12/04 11:46:28;;;;;;;1.90;0.70;;;;;;;6.65;73.27;98284.81;5100528;28;20069;-72
2020/12/04 11:48:53;;;;;;;3.05;0.60;;;;;;;6.58;73.70;98298.50;5097234;28;20035;-72